Flight Track Log - Related Links

Times and Time Zones

All times are in EDT time to prevent confusion due to time zone crossing. See the CEY502 flight status page for this flight to view local times or setup timezone preferences in your user account.

Time Position Orientation Groundspeed Altitude Reporting Facility
EDT Latitude Longitude Course Direction KTS MPH feet Rate Location/Type
Wed 07:50:00 AM 12.1015 -68.6987 18° North  Level FlightAware Approximate
Wed 07:51:00 AM 12.1630 -68.6784 18° North  Level FlightAware Approximate
Wed 07:52:00 AM 12.2246 -68.6580 18° North  Level FlightAware Approximate
Wed 07:53:00 AM 12.2861 -68.6377 18° North  Level FlightAware Approximate
Wed 07:54:00 AM 12.3476 -68.6173 18° North  Level FlightAware Approximate
Wed 07:55:00 AM 12.4092 -68.5971 17° North  Level FlightAware Approximate
Wed 07:56:00 AM 12.4710 -68.5773 17° North  Level FlightAware Approximate
Wed 07:57:00 AM 12.5327 -68.5575 17° North  Level FlightAware Approximate
Wed 07:58:00 AM 12.5944 -68.5378 17° North  Level FlightAware Approximate
Wed 07:59:00 AM 12.6561 -68.5180 17° North  Level FlightAware Approximate
Wed 08:00:00 AM 12.7179 -68.4982 17° North  Level FlightAware Approximate
Wed 08:01:00 AM 12.7796 -68.4784 17° North  Level FlightAware Approximate
Wed 08:02:00 AM 12.8413 -68.4586 17° North  Level FlightAware Approximate
Wed 08:03:00 AM 12.9030 -68.4388 17° North  Level FlightAware Approximate
Wed 08:04:00 AM 12.9648 -68.4190 17° North  Level FlightAware Approximate
Wed 08:05:00 AM 13.0265 -68.3992 17° North  Level FlightAware Approximate
Wed 08:06:00 AM 13.0882 -68.3793 17° North  Level FlightAware Approximate
Wed 08:07:00 AM 13.1499 -68.3595 17° North  Level FlightAware Approximate
Wed 08:08:00 AM 13.2116 -68.3396 17° North  Level FlightAware Approximate
Wed 08:09:00 AM 13.2733 -68.3198 17° North  Level FlightAware Approximate
Wed 08:10:00 AM 13.3351 -68.2999 17° North  Level FlightAware Approximate
Wed 08:11:00 AM 13.3968 -68.2800 17° North  Level FlightAware Approximate
Wed 08:12:00 AM 13.4585 -68.2601 17° North  Level FlightAware Approximate
Wed 08:13:00 AM 13.5202 -68.2402 17° North  Level FlightAware Approximate
Wed 08:14:00 AM 13.5819 -68.2203 17° North  Level FlightAware Approximate
Wed 08:15:00 AM 13.6436 -68.2003 17° North  Level FlightAware Approximate
Wed 08:16:00 AM 13.7053 -68.1804 17° North  Level FlightAware Approximate
Wed 08:17:00 AM 13.7670 -68.1604 17° North  Level FlightAware Approximate
Wed 08:18:00 AM 13.8287 -68.1404 17° North  Level FlightAware Approximate
Wed 08:19:00 AM 13.8904 -68.1205 17° North  Level FlightAware Approximate
Wed 08:20:00 AM 13.9521 -68.1005 17° North  Level FlightAware Approximate
Wed 08:21:00 AM 14.0138 -68.0805 17° North  Level FlightAware Approximate
Wed 08:22:00 AM 14.0755 -68.0605 17° North  Level FlightAware Approximate
Wed 08:23:00 AM 14.1372 -68.0404 17° North  Level FlightAware Approximate
Wed 08:24:00 AM 14.1989 -68.0204 17° North  Level FlightAware Approximate
Wed 08:25:00 AM 14.2605 -68.0004 17° North  Level FlightAware Approximate
Wed 08:26:00 AM 14.3222 -67.9803 17° North  Level FlightAware Approximate
Wed 08:27:00 AM 14.3839 -67.9603 17° North  Level FlightAware Approximate
Wed 08:28:00 AM 14.4456 -67.9402 17° North  Level FlightAware Approximate
Wed 08:29:00 AM 14.5073 -67.9201 18° North  Level FlightAware Approximate
Wed 08:30:00 AM 14.5689 -67.8999 18° North  Level FlightAware Approximate
Wed 08:31:00 AM 14.6306 -67.8797 18° North  Level FlightAware Approximate
Wed 08:32:00 AM 14.6922 -67.8595 18° North  Level FlightAware Approximate
Wed 08:33:00 AM 14.7539 -67.8393 18° North  Level FlightAware Approximate
Wed 08:34:00 AM 14.8155 -67.8190 18° North  Level FlightAware Approximate
Wed 08:35:00 AM 14.8772 -67.7988 18° North  Level FlightAware Approximate
Wed 08:36:00 AM 14.9388 -67.7785 18° North  Level FlightAware Approximate
Wed 08:37:00 AM 15.0005 -67.7583 18° North  Level FlightAware Approximate
Wed 08:38:00 AM 15.0621 -67.7380 18° North  Level FlightAware Approximate
Wed 08:39:00 AM 15.1237 -67.7177 18° North  Level FlightAware Approximate
Wed 08:40:00 AM 15.1854 -67.6974 18° North  Level FlightAware Approximate
Wed 08:41:00 AM 15.2470 -67.6771 18° North  Level FlightAware Approximate
Wed 08:42:00 AM 15.3086 -67.6568 18° North  Level FlightAware Approximate
Wed 08:43:00 AM 15.3703 -67.6365 18° North  Level FlightAware Approximate
Wed 08:44:00 AM 15.4319 -67.6161 18° North  Level FlightAware Approximate
Wed 08:45:00 AM 15.4935 -67.5958 18° North  Level FlightAware Approximate
Wed 08:46:00 AM 15.5552 -67.5754 18° North  Level FlightAware Approximate
Wed 08:47:00 AM 15.6168 -67.5551 18° North  Level FlightAware Approximate
Wed 08:48:00 AM 15.6784 -67.5347 18° North  Level FlightAware Approximate
Wed 08:49:00 AM 15.7400 -67.5143 18° North  Level FlightAware Approximate
Wed 08:50:00 AM 15.8016 -67.4938 18° North  Level FlightAware Approximate
Wed 08:51:00 AM 15.8617 -67.4692 26° Northeast  Level FlightAware Approximate
Wed 08:52:00 AM 15.9223 -67.4458 20° North  Level FlightAware Approximate
Wed 08:53:00 AM 15.9831 -67.4230 20° North  Level FlightAware Approximate
Wed 08:54:00 AM 16.0439 -67.4002 20° North  Level FlightAware Approximate
Wed 08:55:00 AM 16.1048 -67.3774 20° North  Level FlightAware Approximate
Wed 08:55:37 AM 15.9833 -67.4000 22° Northeast 240 276 19,000  Level San Juan Center
Wed 08:56:00 AM 16.1651 -67.3532 22° Northeast  Level FlightAware Approximate
Wed 08:56:37 AM 16.0333 -67.3833 18° North 230 265 19,000  Level San Juan Center
Wed 08:57:00 AM 16.2250 -67.3278 22° Northeast  Level FlightAware Approximate
Wed 08:57:38 AM 16.1000 -67.3500 26° Northeast 220 253 19,000  Level San Juan Center
Wed 08:58:00 AM 16.2849 -67.3024 22° Northeast  Level FlightAware Approximate
Wed 08:58:38 AM 16.1667 -67.3333 14° North 240 276 19,000  Level San Juan Center
Wed 08:59:00 AM 16.3448 -67.2769 22° Northeast  Level FlightAware Approximate
Wed 08:59:38 AM 16.2167 -67.3000 33° Northeast 230 265 19,000  Level San Juan Center
Wed 09:00:00 AM 16.4047 -67.2515 22° Northeast  Level FlightAware Approximate
Wed 09:00:39 AM 16.2833 -67.2833 13° North 230 265 19,000  Level San Juan Center
Wed 09:01:39 AM 16.3333 -67.2667 18° North 230 265 19,000  Level San Juan Center
Wed 09:02:39 AM 16.4000 -67.2500 13° North 230 265 19,000  Level San Juan Center
Wed 09:03:39 AM 16.4667 -67.2167 26° Northeast 230 265 19,000  Level San Juan Center
Wed 09:04:40 AM 16.5333 -67.2000 13° North 230 265 19,000  Level San Juan Center
Wed 09:05:40 AM 16.5833 -67.1833 18° North 240 276 19,000  Level San Juan Center
Wed 09:06:40 AM 16.6500 -67.1500 26° Northeast 230 265 19,000  Level San Juan Center
Wed 09:07:41 AM 16.7000 -67.1333 18° North 240 276 19,000  Level San Juan Center
Wed 09:08:41 AM 16.7667 -67.1000 26° Northeast 230 265 19,000  Level San Juan Center
Wed 09:09:41 AM 16.8333 -67.0833 13° North 220 253 19,000  Level San Juan Center
Wed 09:10:41 AM 16.8833 -67.0500 33° Northeast 240 276 19,000  Level San Juan Center
Wed 09:11:42 AM 16.9500 -67.0167 26° Northeast 240 276 19,000  Level San Juan Center
Wed 09:12:42 AM 17.0000 -67.0000 18° North 240 276 19,000  Level San Juan Center
Wed 09:13:42 AM 17.0833 -66.9667 21° North 240 276 19,000  Level San Juan Center
Wed 09:14:43 AM 17.1333 -66.9500 18° North 230 265 19,000  Level San Juan Center
Wed 09:15:43 AM 17.2000 -66.9167 26° Northeast 230 265 19,000 -50 Level San Juan Center
Wed 09:16:43 AM 17.2500 -66.8833 32° Northeast 230 265 18,900  Descending San Juan Center
Wed 09:17:43 AM 17.3167 -66.8667 13° North 240 276 19,000 50 Climbing San Juan Center
Wed 09:18:44 AM 17.3667 -66.8333 32° Northeast 220 253 19,000  Level San Juan Center
Wed 09:19:44 AM 17.4333 -66.8167 13° North 230 265 19,000  Level San Juan Center
Wed 09:20:45 AM 17.4833 -66.7833 32° Northeast 220 253 19,000  Level San Juan Center
Wed 09:21:45 AM 17.5500 -66.7667 13° North 230 265 19,000 -150 Level San Juan Center
Wed 09:22:45 AM 17.6000 -66.7333 32° Northeast 230 265 18,700 -750 Descending San Juan Center
Wed 09:23:45 AM 17.6667 -66.7167 13° North 260 299 17,500 -1,140 Descending San Juan Center
Wed 09:24:46 AM 17.7500 -66.6833 21° North 270 311 16,400 -1,289 Descending San Juan Center
Wed 09:25:46 AM 17.8167 -66.6500 25° Northeast 280 322 14,900 -1,550 Descending San Juan Center
Wed 09:26:46 AM 17.9000 -66.6333 11° North 290 334 13,300 -1,636 Descending San Juan Center
Wed 09:27:47 AM 17.9667 -66.6000 25° Northeast 280 322 11,600 -1,934 Descending San Juan Center
Wed 09:28:47 AM 18.0500 -66.5833 11° North 290 334 9,400 -2,050 Descending San Juan Center
Wed 09:29:47 AM 18.1167 -66.5500 25° Northeast 250 288 7,500 -1,190 Descending San Juan Center
Wed 09:30:48 AM 18.1833 -66.5333 13° North 230 265 7,000 -248 Descending San Juan Center
Wed 09:31:48 AM 18.2333 -66.5000 32° Northeast 210 242 7,000  Level San Juan Center
Wed 09:32:48 AM 18.2667 -66.4500 55° Northeast 210 242 7,000  Level San Juan Center
Wed 09:33:48 AM 18.2833 -66.4000 71° East 200 230 7,000 -450 Level San Juan Center
Wed 09:34:48 AM 18.3167 -66.3500 55° Northeast 230 265 6,100 -1,289 Descending San Juan Center
Wed 09:35:49 AM 18.3833 -66.3167 25° Northeast 240 276 4,400 -1,190 Descending San Juan Center
Wed 09:36:49 AM 18.4167 -66.2667 55° Northeast 200 230 3,700 -1,050 Descending San Juan Center
Wed 09:37:49 AM 18.4333 -66.2167 71° East 180 207 2,300 -843 Descending San Juan Center
Wed 09:38:50 AM 18.4333 -66.1667 90° East 170 196 2,000 -149 Descending San Juan Center
Wed 09:39:50 AM 18.4333 -66.1167 90° East 170 196 2,000 -300 Level San Juan Center
Wed 09:40:50 AM 18.4333 -66.0667 90° East 170 196 1,400 -793 Descending San Juan Center
Wed 09:41:51 AM 18.4333 -66.0167 90° East 110 127 400 -984 Descending San Juan Center

Login

Don't have an account? Register now (free) for customized features, flight alerts, and more!